createdAt,value
2019-03-08T00:00:34.446Z,54.70
2019-03-08T00:03:03.647Z,54.50
2019-03-08T00:05:32.666Z,55.10
2019-03-08T00:08:01.563Z,55.30
2019-03-08T00:10:30.447Z,55.30
2019-03-08T00:12:59.482Z,55.40
2019-03-08T00:15:28.470Z,55.40
2019-03-08T00:17:57.652Z,55.40
2019-03-08T00:20:26.638Z,55.40
2019-03-08T00:22:55.559Z,55.40
2019-03-08T00:25:24.567Z,55.40
2019-03-08T00:27:53.499Z,55.30
2019-03-08T00:30:22.475Z,55.40
2019-03-08T00:32:51.407Z,55.40
2019-03-08T00:35:20.408Z,55.40
2019-03-08T00:37:49.261Z,56.30
2019-03-08T00:40:18.292Z,57.20
2019-03-08T00:42:47.184Z,57.60
2019-03-08T00:45:16.387Z,57.60
2019-03-08T00:47:45.585Z,58.20
2019-03-08T00:50:14.517Z,58.60
2019-03-08T00:52:43.518Z,58.90
2019-03-08T00:55:12.649Z,58.90
2019-03-08T00:57:42.565Z,59.40
2019-03-08T01:00:14.292Z,59.80
2019-03-08T01:02:43.179Z,60.40
2019-03-08T01:05:12.978Z,60.60
2019-03-08T01:07:41.778Z,60.90
2019-03-08T01:10:13.033Z,61.30
2019-03-08T01:12:41.963Z,61.20
2019-03-08T01:15:12.288Z,61.30
2019-03-08T01:17:41.261Z,61.60
2019-03-08T01:20:11.379Z,61.60
2019-03-08T01:22:40.203Z,62.10
2019-03-08T01:25:09.696Z,62.80
2019-03-08T01:27:40.618Z,64.00
2019-03-08T01:30:11.160Z,66.10
2019-03-08T01:32:40.311Z,67.40
2019-03-08T01:35:09.491Z,68.30
2019-03-08T01:37:38.317Z,70.90
2019-03-08T01:40:07.830Z,69.40
2019-03-08T01:42:36.758Z,70.40
2019-03-08T01:45:06.402Z,69.50
2019-03-08T01:47:35.368Z,69.10
2019-03-08T01:50:04.372Z,69.60
2019-03-08T01:52:33.924Z,70.70
2019-03-08T01:55:03.067Z,70.10
2019-03-08T01:57:32.172Z,71.00
2019-03-08T02:00:01.130Z,71.30
2019-03-08T02:02:30.116Z,72.40
2019-03-08T02:04:59.357Z,74.00
2019-03-08T02:07:28.391Z,74.80
2019-03-08T02:09:57.282Z,75.90
2019-03-08T02:12:26.183Z,76.00
2019-03-08T02:14:55.072Z,76.10
2019-03-08T02:17:23.979Z,76.80
2019-03-08T02:19:52.811Z,77.80
2019-03-08T02:22:23.496Z,79.40
2019-03-08T02:24:52.368Z,80.50
2019-03-08T02:27:21.177Z,84.10
2019-03-08T02:29:50.071Z,90.50
2019-03-08T02:32:18.898Z,90.60
2019-03-08T02:34:47.770Z,89.90
2019-03-08T02:37:17.041Z,90.60
2019-03-08T02:39:45.996Z,88.60
2019-03-08T02:42:15.090Z,88.60
2019-03-08T02:44:43.935Z,90.10
2019-03-08T02:47:13.312Z,91.20
2019-03-08T02:49:42.227Z,92.60
2019-03-08T02:52:11.227Z,92.80
2019-03-08T02:54:40.035Z,93.80
2019-03-08T02:57:08.926Z,95.20
2019-03-08T02:59:37.824Z,95.30
2019-03-08T03:02:06.688Z,95.60
2019-03-08T03:04:35.540Z,95.90
2019-03-08T03:07:04.735Z,95.60
2019-03-08T03:09:33.610Z,96.20
2019-03-08T03:12:02.419Z,96.90
2019-03-08T03:14:31.389Z,97.10
2019-03-08T03:17:00.232Z,97.40
2019-03-08T03:19:32.364Z,97.60
2019-03-08T03:22:01.547Z,97.40
2019-03-08T03:24:30.450Z,97.60
2019-03-08T03:26:59.706Z,97.60
2019-03-08T03:29:28.638Z,97.10
2019-03-08T03:31:57.461Z,97.40
2019-03-08T03:34:26.387Z,96.90
2019-03-08T03:36:55.219Z,96.60
2019-03-08T03:39:24.018Z,95.70
2019-03-08T03:41:52.918Z,96.20
2019-03-08T03:44:21.902Z,96.20
2019-03-08T03:46:50.725Z,95.80
2019-03-08T03:49:19.635Z,95.60
2019-03-08T03:51:48.628Z,95.80
2019-03-08T03:54:17.600Z,95.30
2019-03-08T03:56:46.614Z,95.60
2019-03-08T03:59:15.736Z,96.20
2019-03-08T04:01:47.619Z,96.90
2019-03-08T04:04:16.505Z,97.70
2019-03-08T04:06:45.482Z,99.10
2019-03-08T04:09:14.576Z,99.90
2019-03-08T04:11:43.398Z,99.90
2019-03-08T04:14:12.320Z,99.90
2019-03-08T04:16:41.392Z,99.90
2019-03-08T04:19:10.248Z,99.90
2019-03-08T04:21:39.217Z,99.90
2019-03-08T04:24:08.152Z,99.90
2019-03-08T04:26:37.099Z,99.90
2019-03-08T04:29:06.020Z,99.90
2019-03-08T04:31:34.935Z,99.90
2019-03-08T04:34:04.210Z,99.90
2019-03-08T04:36:33.270Z,99.90
2019-03-08T04:39:02.227Z,99.90
2019-03-08T04:41:31.029Z,99.90
2019-03-08T04:43:59.892Z,99.90
2019-03-08T04:46:28.792Z,99.90
2019-03-08T04:48:57.592Z,99.90
2019-03-08T04:51:26.522Z,99.90
2019-03-08T04:53:55.333Z,99.90
2019-03-08T04:56:24.659Z,99.90
2019-03-08T04:58:53.495Z,99.90
2019-03-08T05:01:22.398Z,99.90
2019-03-08T05:03:51.528Z,99.90
2019-03-08T05:06:20.409Z,99.90
2019-03-08T05:08:49.373Z,99.90
2019-03-08T05:11:18.361Z,99.90
2019-03-08T05:13:47.763Z,99.90
2019-03-08T05:16:16.567Z,99.90
2019-03-08T05:18:45.390Z,99.90
2019-03-08T05:21:14.313Z,99.90
2019-03-08T05:23:43.180Z,99.90
2019-03-08T05:26:12.046Z,99.90
2019-03-08T05:28:41.263Z,99.90
2019-03-08T05:31:10.136Z,99.90
2019-03-08T05:33:39.114Z,99.90
2019-03-08T05:36:07.955Z,99.90
2019-03-08T05:38:36.860Z,99.90
2019-03-08T05:41:05.757Z,99.90
2019-03-08T05:43:34.917Z,99.90
2019-03-08T05:46:03.788Z,99.90
2019-03-08T05:48:32.780Z,99.90
2019-03-08T05:51:01.642Z,99.90
2019-03-08T05:53:30.574Z,99.90
2019-03-08T05:55:59.956Z,99.90
2019-03-08T05:58:29.078Z,99.90
2019-03-08T06:00:58.110Z,99.90
2019-03-08T06:03:27.088Z,99.90
2019-03-08T06:05:56.058Z,99.90
2019-03-08T06:08:24.934Z,99.90
2019-03-08T06:10:54.019Z,99.90
2019-03-08T06:13:23.131Z,99.90
2019-03-08T06:15:51.999Z,99.90
2019-03-08T06:18:21.278Z,99.90
2019-03-08T06:20:50.723Z,99.90
2019-03-08T06:23:19.680Z,99.90
2019-03-08T06:25:48.846Z,99.90
2019-03-08T06:28:18.057Z,99.90
2019-03-08T06:30:47.052Z,99.90
2019-03-08T06:33:15.931Z,99.90
2019-03-08T06:35:45.839Z,99.90
2019-03-08T06:38:15.102Z,99.90
2019-03-08T06:40:44.114Z,99.90
2019-03-08T06:43:13.324Z,99.90
2019-03-08T06:45:42.387Z,99.90
2019-03-08T06:48:11.381Z,99.90
2019-03-08T06:50:41.485Z,99.90
2019-03-08T06:53:10.486Z,99.90
2019-03-08T06:55:39.298Z,99.90
2019-03-08T06:58:08.152Z,99.90
2019-03-08T07:00:54.743Z,99.90
2019-03-08T07:03:23.717Z,99.90
2019-03-08T07:05:52.666Z,99.90
2019-03-08T07:08:22.258Z,99.90
2019-03-08T07:10:51.237Z,99.90
2019-03-08T07:13:20.467Z,99.90
2019-03-08T07:15:49.374Z,99.90
2019-03-08T07:18:18.295Z,99.90
2019-03-08T07:20:52.558Z,99.90
2019-03-08T07:23:33.253Z,99.90
2019-03-08T07:26:30.284Z,99.90
2019-03-08T07:29:11.022Z,99.90
2019-03-08T07:32:08.328Z,99.90
2019-03-08T07:34:47.923Z,99.90
2019-03-08T07:37:43.331Z,99.90
2019-03-08T07:40:23.930Z,99.90
2019-03-08T07:43:24.265Z,99.90
2019-03-08T07:46:24.497Z,99.90
2019-03-08T07:49:12.378Z,99.90
2019-03-08T07:52:08.442Z,99.90
2019-03-08T07:55:05.554Z,99.90
2019-03-08T07:58:12.102Z,99.90
2019-03-08T08:00:51.586Z,99.90
2019-03-08T08:03:35.174Z,99.90
2019-03-08T08:06:22.186Z,99.90
2019-03-08T08:09:10.119Z,99.90
2019-03-08T08:11:56.273Z,99.90
2019-03-08T08:14:39.392Z,99.90
2019-03-08T08:17:13.923Z,99.90
2019-03-08T08:20:02.396Z,99.90
2019-03-08T08:22:38.722Z,99.90
2019-03-08T08:25:36.783Z,99.90
2019-03-08T08:28:20.311Z,99.90
2019-03-08T08:31:20.363Z,99.90
2019-03-08T08:34:21.971Z,99.90
2019-03-08T08:37:08.930Z,99.90
2019-03-08T08:39:55.915Z,99.90
2019-03-08T08:42:40.238Z,99.90
2019-03-08T08:45:17.043Z,99.90
2019-03-08T08:48:10.166Z,99.90
2019-03-08T08:50:51.279Z,99.90
2019-03-08T08:53:28.485Z,99.90
2019-03-08T08:56:15.131Z,99.90
2019-03-08T08:58:53.594Z,99.90
2019-03-08T09:01:48.323Z,99.90
2019-03-08T09:04:39.443Z,99.90
2019-03-08T09:07:30.390Z,99.90
2019-03-08T09:10:09.769Z,99.90
2019-03-08T09:12:53.421Z,98.70
2019-03-08T09:15:41.424Z,99.90
2019-03-08T09:18:17.079Z,99.60
2019-03-08T09:21:03.813Z,99.90
2019-03-08T09:23:40.295Z,99.70
2019-03-08T09:26:21.114Z,99.80
2019-03-08T09:29:05.171Z,99.90
2019-03-08T09:31:52.551Z,99.60
2019-03-08T09:34:36.559Z,99.90
2019-03-08T09:37:17.457Z,99.90
2019-03-08T09:39:56.079Z,97.90
2019-03-08T09:42:52.992Z,98.10
2019-03-08T09:45:46.883Z,98.90
2019-03-08T09:48:48.500Z,98.20
2019-03-08T09:51:30.383Z,98.20
2019-03-08T09:54:05.567Z,99.10
2019-03-08T09:56:50.505Z,99.70
2019-03-08T09:59:44.463Z,98.70
2019-03-08T10:02:29.334Z,97.80
2019-03-08T10:05:18.203Z,97.10
2019-03-08T10:08:12.231Z,95.30
2019-03-08T10:10:56.515Z,94.90
2019-03-08T10:13:40.571Z,94.20
2019-03-08T10:16:16.572Z,95.00
2019-03-08T10:18:59.559Z,91.40
2019-03-08T10:21:48.543Z,90.20
2019-03-08T10:24:42.530Z,81.60
2019-03-08T10:27:26.346Z,81.90
2019-03-08T10:30:16.496Z,71.40
2019-03-08T10:32:54.459Z,76.10
2019-03-08T10:35:45.535Z,71.20
2019-03-08T10:38:26.430Z,64.20
2019-03-08T10:41:07.496Z,56.40
2019-03-08T10:43:42.818Z,51.50
2019-03-08T10:46:30.594Z,56.00
2019-03-08T10:49:09.187Z,52.00
2019-03-08T10:51:47.115Z,55.00
2019-03-08T10:54:44.016Z,49.30
2019-03-08T10:57:32.194Z,53.00
2019-03-08T11:00:26.010Z,49.60
2019-03-08T11:03:06.490Z,49.10
2019-03-08T11:06:03.872Z,50.60
2019-03-08T11:09:01.439Z,50.40
2019-03-08T11:11:49.329Z,50.30
2019-03-08T11:14:31.197Z,52.70
2019-03-08T11:17:15.064Z,53.00
2019-03-08T11:20:09.056Z,49.20
2019-03-08T11:22:45.279Z,48.80
2019-03-08T11:25:39.944Z,46.60
2019-03-08T11:28:21.300Z,49.10
2019-03-08T11:31:11.830Z,49.70
2019-03-08T11:33:54.634Z,53.30
2019-03-08T11:36:41.787Z,57.80
2019-03-08T11:39:36.659Z,60.00
2019-03-08T11:42:13.467Z,63.00
2019-03-08T11:44:49.991Z,66.30
2019-03-08T11:47:25.531Z,68.40
2019-03-08T11:50:12.186Z,71.50
2019-03-08T11:53:06.160Z,67.90
2019-03-08T11:55:46.428Z,71.50
2019-03-08T11:58:40.780Z,88.20
2019-03-08T12:01:27.213Z,90.90
2019-03-08T12:04:15.235Z,93.00
2019-03-08T12:06:57.858Z,93.00
2019-03-08T12:09:44.723Z,93.30
2019-03-08T12:12:31.724Z,91.60
2019-03-08T12:15:31.994Z,90.90
2019-03-08T12:18:23.407Z,90.10
2019-03-08T12:21:01.063Z,88.30
2019-03-08T12:23:46.005Z,86.90
2019-03-08T12:26:30.191Z,83.10
2019-03-08T12:29:33.599Z,81.40
2019-03-08T12:32:36.660Z,81.50
2019-03-08T12:35:24.178Z,79.40
2019-03-08T12:38:16.376Z,74.40
2019-03-08T12:41:16.644Z,77.70
2019-03-08T12:44:04.683Z,77.50
2019-03-08T12:47:02.120Z,81.50
2019-03-08T12:49:52.995Z,78.40
2019-03-08T12:52:44.032Z,79.40
2019-03-08T12:55:24.036Z,76.30
2019-03-08T12:58:27.720Z,75.80
2019-03-08T13:01:14.733Z,75.20
2019-03-08T13:04:01.971Z,66.80
2019-03-08T13:06:53.248Z,69.30
2019-03-08T13:09:46.955Z,61.70
2019-03-08T13:12:17.107Z,59.10
2019-03-08T13:14:46.076Z,57.50
2019-03-08T13:17:15.376Z,52.80
2019-03-08T13:19:44.565Z,52.10
2019-03-08T13:22:13.559Z,51.80
2019-03-08T13:24:43.052Z,54.20
2019-03-08T13:27:12.005Z,53.90
2019-03-08T13:29:40.935Z,52.90
2019-03-08T13:32:11.183Z,53.70
2019-03-08T13:34:40.037Z,51.10
2019-03-08T13:37:09.032Z,48.50
2019-03-08T13:39:38.439Z,47.70
2019-03-08T13:42:07.282Z,43.00
2019-03-08T13:44:36.322Z,40.80
2019-03-08T13:47:05.610Z,37.70
2019-03-08T13:49:34.739Z,38.50
2019-03-08T13:52:03.739Z,38.00
2019-03-08T13:54:32.984Z,38.20
2019-03-08T13:57:02.019Z,35.50
2019-03-08T13:59:34.022Z,35.50
2019-03-08T14:02:02.963Z,34.70
2019-03-08T14:04:32.089Z,33.30
2019-03-08T14:07:00.918Z,29.90
2019-03-08T14:09:30.132Z,28.70
2019-03-08T14:11:59.304Z,29.20
2019-03-08T14:14:28.395Z,28.50
2019-03-08T14:16:57.559Z,28.60
2019-03-08T14:19:26.448Z,28.60
2019-03-08T14:21:55.531Z,28.80
2019-03-08T14:24:24.565Z,29.50
2019-03-08T14:26:53.483Z,29.30
2019-03-08T14:29:23.661Z,29.20
2019-03-08T14:32:14.709Z,29.50
2019-03-08T14:34:43.845Z,29.10
2019-03-08T14:37:16.206Z,29.60
2019-03-08T14:39:44.369Z,29.60
2019-03-08T14:42:22.621Z,30.00
2019-03-08T14:44:55.429Z,29.70
2019-03-08T14:47:29.370Z,29.90
2019-03-08T14:49:59.285Z,30.00
2019-03-08T14:52:29.349Z,30.00
2019-03-08T14:55:00.043Z,30.60
2019-03-08T14:57:29.286Z,31.10
2019-03-08T14:59:58.558Z,31.00
2019-03-08T15:02:27.497Z,31.90
2019-03-08T15:04:56.837Z,31.50
2019-03-08T15:07:27.685Z,30.90
2019-03-08T15:09:56.521Z,30.80
2019-03-08T15:12:25.677Z,31.30
2019-03-08T15:14:54.632Z,30.80
2019-03-08T15:17:23.746Z,31.00
2019-03-08T15:19:52.828Z,29.80
2019-03-08T15:22:21.939Z,30.00
2019-03-08T15:24:51.035Z,29.80
2019-03-08T15:27:20.444Z,29.80
2019-03-08T15:29:54.533Z,29.90
2019-03-08T15:32:19.904Z,30.40
2019-03-08T15:34:49.052Z,30.10
2019-03-08T15:37:18.047Z,30.30
2019-03-08T15:39:51.126Z,29.10
2019-03-08T15:42:20.232Z,29.00
2019-03-08T15:44:49.233Z,30.60
2019-03-08T15:47:23.518Z,31.30
2019-03-08T15:49:49.283Z,30.00
2019-03-08T15:52:18.671Z,30.40
2019-03-08T15:54:48.404Z,31.20
2019-03-08T15:57:19.978Z,30.00
2019-03-08T15:59:48.861Z,29.60
2019-03-08T16:02:18.052Z,30.00
2019-03-08T16:04:50.162Z,30.50
2019-03-08T16:07:19.030Z,31.10
2019-03-08T16:09:49.278Z,31.80
2019-03-08T16:12:18.608Z,32.60
2019-03-08T16:14:47.778Z,32.60
2019-03-08T16:17:17.049Z,33.60
2019-03-08T16:19:46.523Z,33.50
2019-03-08T16:22:15.523Z,34.00
2019-03-08T16:24:44.647Z,34.50
2019-03-08T16:27:13.463Z,35.00
2019-03-08T16:29:43.018Z,35.20
2019-03-08T16:32:37.287Z,35.70
2019-03-08T16:35:06.671Z,36.00
2019-03-08T16:37:42.225Z,35.60
2019-03-08T16:40:30.101Z,37.50
2019-03-08T16:43:27.031Z,37.20
2019-03-08T16:46:08.035Z,38.80
2019-03-08T16:48:44.056Z,38.80
2019-03-08T16:51:39.670Z,38.50
2019-03-08T16:54:30.582Z,37.70
2019-03-08T16:57:11.036Z,38.00
2019-03-08T16:59:59.191Z,39.60
2019-03-08T17:02:37.074Z,39.80
2019-03-08T17:05:37.543Z,40.10
2019-03-08T17:08:15.907Z,41.10
2019-03-08T17:11:07.127Z,43.20
2019-03-08T17:14:01.318Z,47.80
2019-03-08T17:16:38.662Z,53.50
2019-03-08T17:19:15.195Z,57.30
2019-03-08T17:21:52.720Z,59.50
2019-03-08T17:24:43.788Z,64.00
2019-03-08T17:27:39.877Z,66.60
2019-03-08T17:30:18.632Z,69.60
2019-03-08T17:33:09.760Z,72.80
2019-03-08T17:36:13.180Z,75.20
2019-03-08T17:38:55.641Z,77.40
2019-03-08T17:41:34.976Z,79.50
2019-03-08T17:44:13.611Z,80.30
2019-03-08T17:47:08.608Z,79.40
2019-03-08T17:50:00.308Z,81.30
2019-03-08T17:52:47.243Z,80.60
2019-03-08T17:55:38.306Z,81.30
2019-03-08T17:58:25.057Z,81.20
2019-03-08T18:01:13.083Z,82.30
2019-03-08T18:03:57.039Z,83.20
2019-03-08T18:06:45.506Z,83.00
2019-03-08T18:09:45.835Z,83.00
2019-03-08T18:12:36.487Z,82.60
2019-03-08T18:15:13.614Z,84.10
2019-03-08T18:17:48.998Z,85.20
2019-03-08T18:20:30.805Z,84.80
2019-03-08T18:23:25.190Z,85.60
2019-03-08T18:26:03.479Z,85.80
2019-03-08T18:28:50.358Z,86.90
2019-03-08T18:31:43.462Z,86.30
2019-03-08T18:34:30.227Z,86.70
2019-03-08T18:37:13.217Z,87.10
2019-03-08T18:40:01.491Z,88.10
2019-03-08T18:42:38.463Z,89.00
2019-03-08T18:45:26.826Z,88.80
2019-03-08T18:48:11.668Z,89.20
2019-03-08T18:51:02.615Z,89.10
2019-03-08T18:53:48.165Z,89.10
2019-03-08T18:56:39.407Z,90.00
2019-03-08T18:59:28.157Z,90.30
2019-03-08T19:02:20.682Z,90.40
2019-03-08T19:05:15.992Z,90.20
2019-03-08T19:08:03.358Z,90.50
2019-03-08T19:10:40.399Z,90.30
2019-03-08T19:13:24.517Z,90.50
2019-03-08T19:16:05.340Z,90.70
2019-03-08T19:18:41.738Z,90.60
2019-03-08T19:21:32.719Z,90.90
2019-03-08T19:24:21.338Z,90.90
2019-03-08T19:27:17.529Z,91.20
2019-03-08T19:30:21.008Z,91.30
2019-03-08T19:33:17.970Z,91.60
2019-03-08T19:35:53.574Z,92.10
2019-03-08T19:38:29.478Z,92.30
2019-03-08T19:41:09.379Z,92.90
2019-03-08T19:43:56.287Z,93.00
2019-03-08T19:46:43.000Z,93.50
2019-03-08T19:49:29.037Z,93.30
2019-03-08T19:52:04.931Z,93.70
2019-03-08T19:54:52.015Z,93.20
2019-03-08T19:57:49.650Z,94.00
2019-03-08T20:00:37.252Z,94.20
2019-03-08T20:03:41.018Z,93.70
2019-03-08T20:06:28.287Z,93.60
2019-03-08T20:09:21.484Z,93.30
2019-03-08T20:12:06.739Z,93.80
2019-03-08T20:14:57.621Z,93.70
2019-03-08T20:17:45.980Z,93.60
2019-03-08T20:20:33.286Z,93.60
2019-03-08T20:23:20.038Z,93.40
2019-03-08T20:26:07.262Z,93.00
2019-03-08T20:29:00.952Z,92.60
2019-03-08T20:31:55.471Z,92.50
2019-03-08T20:34:46.538Z,91.30
2019-03-08T20:37:37.796Z,91.30
2019-03-08T20:40:25.900Z,90.90
2019-03-08T20:43:00.265Z,91.30
2019-03-08T20:45:51.596Z,91.40
2019-03-08T20:48:20.813Z,91.50
2019-03-08T20:50:49.799Z,91.20
2019-03-08T20:53:18.898Z,91.60
2019-03-08T20:55:48.032Z,90.80
2019-03-08T20:58:17.010Z,91.40
2019-03-08T21:00:47.127Z,91.00
2019-03-08T21:03:16.396Z,91.00
2019-03-08T21:05:45.381Z,90.90
2019-03-08T21:08:14.591Z,91.00
2019-03-08T21:10:43.644Z,91.00
2019-03-08T21:13:12.528Z,91.00
2019-03-08T21:15:42.083Z,91.00
2019-03-08T21:18:10.988Z,90.60
2019-03-08T21:20:40.255Z,90.10
2019-03-08T21:23:09.362Z,89.80
2019-03-08T21:25:38.190Z,89.90
2019-03-08T21:28:07.445Z,90.00
2019-03-08T21:30:36.451Z,88.60
2019-03-08T21:33:05.544Z,87.70
2019-03-08T21:35:34.367Z,88.10
2019-03-08T21:38:03.280Z,87.10
2019-03-08T21:40:32.434Z,85.60
2019-03-08T21:43:01.793Z,84.20
2019-03-08T21:45:30.810Z,84.10
2019-03-08T21:48:00.636Z,84.60
2019-03-08T21:50:29.539Z,84.30
2019-03-08T21:52:58.442Z,84.40
2019-03-08T21:55:27.395Z,84.60
2019-03-08T21:57:56.226Z,82.70
2019-03-08T22:00:25.690Z,82.10
2019-03-08T22:02:54.898Z,80.80
2019-03-08T22:05:29.630Z,80.80
2019-03-08T22:08:00.621Z,80.80
2019-03-08T22:10:34.524Z,80.00
2019-03-08T22:13:03.664Z,79.40
2019-03-08T22:15:32.493Z,78.40
2019-03-08T22:18:01.570Z,78.70
2019-03-08T22:20:30.487Z,78.00
2019-03-08T22:22:59.538Z,78.40
2019-03-08T22:25:28.814Z,77.00
2019-03-08T22:27:58.079Z,75.90
2019-03-08T22:30:27.347Z,75.90
2019-03-08T22:32:56.544Z,75.70
2019-03-08T22:35:25.808Z,75.30
2019-03-08T22:37:55.041Z,75.60
2019-03-08T22:40:24.227Z,75.70
2019-03-08T22:42:53.327Z,74.90
2019-03-08T22:45:22.527Z,74.30
2019-03-08T22:47:51.491Z,75.60
2019-03-08T22:50:20.698Z,76.10
2019-03-08T22:52:49.710Z,75.10
2019-03-08T22:55:18.594Z,74.20
2019-03-08T22:57:47.697Z,73.90
2019-03-08T23:00:53.703Z,74.30
2019-03-08T23:03:23.259Z,73.80
2019-03-08T23:05:52.275Z,73.70
2019-03-08T23:08:21.156Z,72.70
2019-03-08T23:10:50.244Z,73.30
2019-03-08T23:13:19.076Z,72.60
2019-03-08T23:15:48.026Z,72.70
2019-03-08T23:18:17.246Z,72.60
2019-03-08T23:20:46.234Z,72.70
2019-03-08T23:23:15.547Z,72.10
2019-03-08T23:25:44.482Z,71.60
2019-03-08T23:28:34.037Z,71.90
2019-03-08T23:31:07.880Z,72.00
2019-03-08T23:33:36.969Z,72.00
2019-03-08T23:36:05.933Z,72.00
2019-03-08T23:38:34.844Z,71.50
2019-03-08T23:41:03.866Z,71.80
2019-03-08T23:43:32.878Z,72.80
2019-03-08T23:46:02.084Z,72.40
2019-03-08T23:48:30.980Z,72.70
2019-03-08T23:50:59.866Z,72.00
2019-03-08T23:53:28.886Z,72.80
2019-03-08T23:55:57.768Z,72.80
2019-03-08T23:58:26.703Z,72.90
